createdAt,value
2022-09-29T00:02:17.004Z,99772.52
2022-09-29T00:05:23.595Z,99771.54
2022-09-29T00:08:28.742Z,99775.70
2022-09-29T00:11:33.958Z,99779.14
2022-09-29T00:14:41.373Z,99786.46
2022-09-29T00:18:09.643Z,99785.92
2022-09-29T00:20:56.783Z,99790.69
2022-09-29T00:24:03.488Z,99794.13
2022-09-29T00:27:09.292Z,99783.56
2022-09-29T00:30:13.778Z,99786.97
2022-09-29T00:33:18.485Z,99792.44
2022-09-29T00:36:30.391Z,99809.66
2022-09-29T00:39:38.300Z,99806.03
2022-09-29T00:42:45.434Z,99804.28
2022-09-29T00:45:50.660Z,99809.37
2022-09-29T00:48:57.195Z,99808.67
2022-09-29T00:52:12.894Z,99815.64
2022-09-29T00:55:22.009Z,99816.81
2022-09-29T00:58:49.051Z,99820.92
2022-09-29T01:01:55.386Z,99824.33
2022-09-29T01:05:02.400Z,99827.92
2022-09-29T01:08:09.487Z,99824.64
2022-09-29T01:11:15.430Z,99834.22
2022-09-29T01:14:22.935Z,99836.95
2022-09-29T01:17:28.190Z,99833.59
2022-09-29T01:20:35.484Z,99834.48
2022-09-29T01:24:21.797Z,99842.50
2022-09-29T01:27:56.263Z,99841.80
2022-09-29T01:31:10.524Z,99845.91
2022-09-29T01:34:36.097Z,99852.75
2022-09-29T01:38:00.422Z,99846.22
2022-09-29T01:41:24.381Z,99853.92
2022-09-29T01:44:33.695Z,99842.78
2022-09-29T01:47:57.210Z,99839.86
2022-09-29T01:51:05.922Z,99847.37
2022-09-29T01:54:13.845Z,99851.13
2022-09-29T01:57:37.679Z,99848.06
2022-09-29T02:00:46.492Z,99853.86
2022-09-29T02:04:01.680Z,99862.07
2022-09-29T02:07:19.924Z,99858.31
2022-09-29T02:10:36.037Z,99858.44
2022-09-29T02:13:42.769Z,99856.37
2022-09-29T02:16:51.955Z,99855.33
2022-09-29T02:19:57.345Z,99859.43
2022-09-29T02:23:03.459Z,99869.68
2022-09-29T02:26:09.229Z,99861.78
2022-09-29T02:29:17.813Z,99866.24
2022-09-29T02:32:23.165Z,99872.35
2022-09-29T02:35:29.461Z,99878.02
2022-09-29T02:38:42.751Z,99884.03
2022-09-29T02:42:01.119Z,99905.27
2022-09-29T02:45:38.978Z,99909.37
2022-09-29T02:48:57.353Z,99922.72
2022-09-29T02:52:23.147Z,99927.17
2022-09-29T02:55:47.734Z,99924.75
2022-09-29T02:59:04.774Z,99915.33
2022-09-29T03:02:12.506Z,99916.34
2022-09-29T03:05:20.365Z,99924.25
2022-09-29T03:08:27.253Z,99920.52
2022-09-29T03:11:33.297Z,99919.84
2022-09-29T03:14:39.004Z,99926.02
2022-09-29T03:17:44.513Z,99927.26
2022-09-29T03:20:51.674Z,99936.33
2022-09-29T03:23:57.787Z,99933.05
2022-09-29T03:27:04.155Z,99930.98
2022-09-29T03:30:11.393Z,99928.25
2022-09-29T03:33:17.992Z,99926.21
2022-09-29T03:36:24.565Z,99940.95
2022-09-29T03:39:30.472Z,99941.45
2022-09-29T03:42:37.431Z,99952.95
2022-09-29T03:45:42.813Z,99955.69
2022-09-29T03:48:49.680Z,99955.52
2022-09-29T03:51:56.664Z,99963.92
2022-09-29T03:55:01.449Z,99973.18
2022-09-29T03:58:07.702Z,99977.66
2022-09-29T04:01:14.454Z,99976.30
2022-09-29T04:04:19.637Z,99986.20
2022-09-29T04:07:27.762Z,99986.87
2022-09-29T04:10:33.273Z,99996.77
2022-09-29T04:13:40.792Z,99990.24
2022-09-29T04:16:47.319Z,99995.70
2022-09-29T04:19:53.975Z,100008.50
2022-09-29T04:23:00.305Z,100020.58
2022-09-29T04:26:08.996Z,100016.77
2022-09-29T04:29:15.194Z,100023.05
2022-09-29T04:32:21.165Z,100028.50
2022-09-29T04:35:33.610Z,100035.30
2022-09-29T04:38:38.320Z,100031.29
2022-09-29T04:41:46.199Z,100032.06
2022-09-29T04:44:54.641Z,100032.17
2022-09-29T04:47:59.714Z,100035.33
2022-09-29T04:51:06.493Z,100040.17
2022-09-29T04:54:13.396Z,100032.91
2022-09-29T04:57:19.419Z,100027.52
2022-09-29T05:00:25.483Z,100031.25
2022-09-29T05:03:33.355Z,100033.48
2022-09-29T05:06:39.097Z,100042.02
2022-09-29T05:09:46.404Z,100040.78
2022-09-29T05:12:53.521Z,100039.76
2022-09-29T05:15:59.359Z,100047.22
2022-09-29T05:19:07.032Z,100051.14
2022-09-29T05:22:13.051Z,100050.37
2022-09-29T05:25:18.625Z,100051.67
2022-09-29T05:28:25.151Z,100052.81
2022-09-29T05:31:30.297Z,100053.92
2022-09-29T05:34:38.936Z,100059.48
2022-09-29T05:37:44.972Z,100064.39
2022-09-29T05:40:50.877Z,100061.41
2022-09-29T05:43:58.912Z,100062.52
2022-09-29T05:47:05.910Z,100074.12
2022-09-29T05:50:12.370Z,100072.67
2022-09-29T05:53:18.961Z,100079.09
2022-09-29T05:56:29.008Z,100085.02
2022-09-29T05:59:35.897Z,100082.05
2022-09-29T06:02:43.504Z,100088.44
2022-09-29T06:05:55.421Z,100102.39
2022-09-29T06:09:01.920Z,100097.28
2022-09-29T06:12:09.928Z,100098.02
2022-09-29T06:15:19.483Z,100102.98
2022-09-29T06:18:24.751Z,100101.79
2022-09-29T06:21:34.147Z,100110.09
2022-09-29T06:24:41.099Z,100108.81
2022-09-29T06:27:48.312Z,100114.89
2022-09-29T06:30:56.012Z,100109.65
2022-09-29T06:34:02.762Z,100116.18
2022-09-29T06:37:26.248Z,100116.66
2022-09-29T06:40:33.519Z,100115.69
2022-09-29T06:44:05.238Z,100116.56
2022-09-29T06:47:19.776Z,100131.33
2022-09-29T06:55:00.320Z,100120.33
2022-09-29T07:06:02.015Z,100125.20
2022-09-29T07:09:00.762Z,100132.43
2022-09-29T07:12:11.800Z,100123.45
2022-09-29T07:15:43.697Z,100125.20
2022-09-29T07:19:20.091Z,100127.25
2022-09-29T07:22:26.932Z,100128.47
2022-09-29T07:25:51.702Z,100132.52
2022-09-29T07:28:49.182Z,100129.55
2022-09-29T07:32:26.022Z,100139.00
2022-09-29T07:35:51.077Z,100134.38
2022-09-29T07:38:58.942Z,100145.51
2022-09-29T07:42:08.989Z,100151.25
2022-09-29T07:45:12.767Z,100154.75
2022-09-29T07:48:19.037Z,100163.33
2022-09-29T07:51:28.778Z,100168.84
2022-09-29T07:54:34.005Z,100162.91
2022-09-29T07:57:41.527Z,100163.34
2022-09-29T08:00:49.234Z,100163.03
2022-09-29T08:03:57.014Z,100173.64
2022-09-29T08:07:04.171Z,100172.56
2022-09-29T08:10:15.798Z,100181.70
2022-09-29T08:13:04.499Z,100174.59
2022-09-29T08:16:15.732Z,100179.25
2022-09-29T08:19:23.741Z,100175.12
2022-09-29T08:22:32.319Z,100179.69
2022-09-29T08:25:37.246Z,100178.31
2022-09-29T08:28:50.624Z,100186.16
2022-09-29T08:31:55.361Z,100184.36
2022-09-29T08:35:01.710Z,100192.23
2022-09-29T08:38:09.506Z,100200.70
2022-09-29T08:41:17.946Z,100199.45
2022-09-29T08:44:40.763Z,100202.22
2022-09-29T08:47:58.718Z,100209.03
2022-09-29T08:51:12.853Z,100209.67
2022-09-29T08:54:38.799Z,100214.13
2022-09-29T08:57:43.925Z,100217.53
2022-09-29T09:01:10.910Z,100220.17
2022-09-29T09:04:50.669Z,100219.65
2022-09-29T09:08:18.109Z,100218.91
2022-09-29T09:11:49.971Z,100224.44
2022-09-29T09:15:13.529Z,100223.57
2022-09-29T09:18:49.400Z,100222.19
2022-09-29T09:22:01.553Z,100225.47
2022-09-29T09:25:17.731Z,100226.33
2022-09-29T09:28:43.754Z,100228.36
2022-09-29T09:32:01.657Z,100229.31
2022-09-29T09:35:53.374Z,100226.86
2022-09-29T09:39:08.690Z,100235.47
2022-09-29T09:42:15.607Z,100236.85
2022-09-29T09:45:37.272Z,100240.66
2022-09-29T09:49:02.879Z,100241.30
2022-09-29T09:52:44.127Z,100243.42
2022-09-29T09:55:48.480Z,100241.53
2022-09-29T09:59:32.303Z,100245.84
2022-09-29T10:02:37.345Z,100242.11
2022-09-29T10:05:53.967Z,100237.69
2022-09-29T10:09:02.609Z,100239.63
2022-09-29T10:12:12.674Z,100238.02
2022-09-29T10:15:38.775Z,100245.05
2022-09-29T10:19:02.513Z,100245.43
2022-09-29T10:22:09.217Z,100240.33
2022-09-29T10:25:30.387Z,100245.51
2022-09-29T10:28:39.140Z,100239.31
2022-09-29T10:32:17.554Z,100235.34
2022-09-29T10:35:36.518Z,100235.62
2022-09-29T10:38:45.005Z,100234.02
2022-09-29T10:42:06.219Z,100235.50
2022-09-29T10:45:20.643Z,100244.98
2022-09-29T10:48:29.677Z,100237.58
2022-09-29T10:51:37.951Z,100245.20
2022-09-29T10:54:48.488Z,100241.97
2022-09-29T10:57:55.747Z,100236.63
2022-09-29T11:01:07.348Z,100240.64
2022-09-29T11:04:21.201Z,100242.73
2022-09-29T11:07:27.319Z,100235.56
2022-09-29T11:10:51.737Z,100240.01
2022-09-29T11:13:59.908Z,100232.06
2022-09-29T11:17:14.946Z,100237.63
2022-09-29T11:20:28.047Z,100239.08
2022-09-29T11:23:51.230Z,100235.54
2022-09-29T11:27:08.952Z,100234.84
2022-09-29T11:30:34.612Z,100225.28
2022-09-29T11:34:07.810Z,100224.27
2022-09-29T11:37:18.114Z,100218.73
2022-09-29T11:40:39.336Z,100221.50
2022-09-29T11:44:08.507Z,100226.96
2022-09-29T11:47:49.208Z,100231.36
2022-09-29T11:51:15.668Z,100229.73
2022-09-29T11:54:37.361Z,100228.73
2022-09-29T11:57:59.824Z,100218.41
2022-09-29T12:01:27.183Z,100227.17
2022-09-29T12:05:05.852Z,100226.99
2022-09-29T12:08:22.992Z,100232.30
2022-09-29T12:12:25.294Z,100219.58
2022-09-29T12:15:41.081Z,100220.73
2022-09-29T12:18:56.917Z,100223.74
2022-09-29T12:22:05.795Z,100221.59
2022-09-29T12:25:13.494Z,100228.17
2022-09-29T12:28:30.446Z,100213.92
2022-09-29T12:31:46.409Z,100224.78
2022-09-29T12:35:07.420Z,100226.08
2022-09-29T12:38:22.513Z,100224.83
2022-09-29T12:41:35.811Z,100234.55
2022-09-29T12:45:10.782Z,100232.05
2022-09-29T12:48:52.196Z,100230.91
2022-09-29T12:52:05.707Z,100228.05
2022-09-29T12:55:16.378Z,100221.29
2022-09-29T12:58:27.541Z,100226.17
2022-09-29T13:01:46.120Z,100227.71
2022-09-29T13:05:40.660Z,100227.36
2022-09-29T13:09:12.164Z,100231.91
2022-09-29T13:12:52.814Z,100230.83
2022-09-29T13:16:27.982Z,100234.84
2022-09-29T13:20:13.621Z,100233.02
2022-09-29T13:23:46.013Z,100237.03
2022-09-29T13:27:36.297Z,100230.74
2022-09-29T13:30:45.549Z,100235.61
2022-09-29T13:33:51.022Z,100239.91
2022-09-29T13:36:56.407Z,100234.21
2022-09-29T13:40:18.141Z,100237.06
2022-09-29T13:43:28.451Z,100233.08
2022-09-29T13:46:50.977Z,100231.48
2022-09-29T13:50:02.264Z,100231.85
2022-09-29T13:53:08.963Z,100219.68
2022-09-29T13:56:32.668Z,100230.61
2022-09-29T13:59:39.027Z,100222.93
2022-09-29T14:03:01.080Z,100225.97
2022-09-29T14:06:39.779Z,100224.59
2022-09-29T14:09:34.684Z,100225.18
2022-09-29T14:12:40.551Z,100232.70
2022-09-29T14:16:07.945Z,100226.06
2022-09-29T14:19:41.113Z,100233.91
2022-09-29T14:23:31.010Z,100231.75
2022-09-29T14:27:02.056Z,100232.03
2022-09-29T14:30:27.977Z,100236.02
2022-09-29T14:33:54.746Z,100232.21
2022-09-29T14:37:00.565Z,100230.23
2022-09-29T14:40:25.472Z,100234.91
2022-09-29T14:43:32.288Z,100231.73
2022-09-29T14:47:14.837Z,100242.41
2022-09-29T14:51:04.025Z,100237.95
2022-09-29T14:54:38.759Z,100238.41
2022-09-29T14:58:07.293Z,100235.16
2022-09-29T15:01:31.773Z,100236.06
2022-09-29T15:04:37.547Z,100226.61
2022-09-29T15:07:43.253Z,100236.64
2022-09-29T15:10:54.353Z,100229.77
2022-09-29T15:14:03.108Z,100226.73
2022-09-29T15:17:31.390Z,100230.28
2022-09-29T15:20:47.684Z,100234.39
2022-09-29T15:24:18.747Z,100236.17
2022-09-29T15:27:27.920Z,100237.60
2022-09-29T15:30:36.236Z,100238.52
2022-09-29T15:33:45.091Z,100249.38
2022-09-29T15:36:53.715Z,100251.41
2022-09-29T15:40:02.771Z,100246.55
2022-09-29T15:43:11.463Z,100247.21
2022-09-29T15:46:19.717Z,100238.20
2022-09-29T15:49:37.171Z,100236.73
2022-09-29T15:52:43.272Z,100235.80
2022-09-29T15:55:48.417Z,100239.29
2022-09-29T15:59:02.057Z,100235.05
2022-09-29T16:02:06.873Z,100241.09
2022-09-29T16:05:22.972Z,100244.06
2022-09-29T16:08:32.591Z,100240.47
2022-09-29T16:11:52.009Z,100241.28
2022-09-29T16:14:57.208Z,100246.66
2022-09-29T16:18:04.845Z,100248.88
2022-09-29T16:21:11.065Z,100257.14
2022-09-29T16:24:32.121Z,100256.81
2022-09-29T16:28:00.790Z,100260.07
2022-09-29T16:31:36.420Z,100265.91
2022-09-29T16:34:48.143Z,100267.77
2022-09-29T16:37:54.646Z,100277.08
2022-09-29T16:41:01.827Z,100273.57
2022-09-29T16:44:42.377Z,100273.78
2022-09-29T16:47:49.424Z,100274.51
2022-09-29T16:50:58.933Z,100278.13
2022-09-29T16:54:03.601Z,100278.30
2022-09-29T16:57:45.422Z,100276.61
2022-09-29T17:00:54.389Z,100286.98
2022-09-29T17:04:01.803Z,100287.73
2022-09-29T17:07:06.722Z,100291.73
2022-09-29T17:10:15.643Z,100303.69
2022-09-29T17:13:26.538Z,100306.85
2022-09-29T17:16:34.846Z,100303.12
2022-09-29T17:19:41.442Z,100304.71
2022-09-29T17:22:51.200Z,100306.61
2022-09-29T17:25:57.170Z,100307.87
2022-09-29T17:29:04.057Z,100309.15
2022-09-29T17:32:12.432Z,100305.53
2022-09-29T17:35:20.596Z,100314.20
2022-09-29T17:38:29.371Z,100308.55
2022-09-29T17:41:37.263Z,100307.38
2022-09-29T17:44:47.387Z,100301.05
2022-09-29T17:47:54.055Z,100299.88
2022-09-29T17:51:07.707Z,100297.33
2022-09-29T17:54:13.542Z,100292.84
2022-09-29T17:57:18.929Z,100290.30
2022-09-29T18:00:30.838Z,100282.45
2022-09-29T18:03:39.969Z,100288.16
2022-09-29T18:06:45.657Z,100284.75
2022-09-29T18:09:52.235Z,100277.55
2022-09-29T18:13:00.454Z,100281.02
2022-09-29T18:16:06.828Z,100277.95
2022-09-29T18:19:18.670Z,100278.98
2022-09-29T18:22:25.684Z,100284.70
2022-09-29T18:25:31.979Z,100287.34
2022-09-29T18:28:38.955Z,100286.17
2022-09-29T18:31:45.571Z,100296.88
2022-09-29T18:34:52.751Z,100289.13
2022-09-29T18:37:58.914Z,100292.75
2022-09-29T18:41:08.544Z,100308.31
2022-09-29T18:44:19.413Z,100300.70
2022-09-29T18:47:25.343Z,100305.09
2022-09-29T18:50:35.929Z,100297.28
2022-09-29T18:53:42.716Z,100300.48
2022-09-29T18:56:51.395Z,100294.56
2022-09-29T18:59:58.871Z,100304.11
2022-09-29T19:03:06.666Z,100299.26
2022-09-29T19:06:13.033Z,100300.74
2022-09-29T19:09:20.710Z,100294.00
2022-09-29T19:12:28.307Z,100296.34
2022-09-29T19:15:36.778Z,100301.64
2022-09-29T19:18:43.656Z,100303.85
2022-09-29T19:21:50.289Z,100298.99
2022-09-29T19:24:56.865Z,100302.72
2022-09-29T19:28:04.863Z,100303.58
2022-09-29T19:31:13.854Z,100307.50
2022-09-29T19:34:20.804Z,100310.70
2022-09-29T19:37:27.802Z,100298.83
2022-09-29T19:40:40.698Z,100298.62
2022-09-29T19:43:47.279Z,100298.10
2022-09-29T19:46:53.312Z,100294.83
2022-09-29T19:50:00.997Z,100297.03
2022-09-29T19:56:16.173Z,100308.92
2022-09-29T19:59:26.055Z,100301.52
2022-09-29T20:02:33.344Z,100304.27
2022-09-29T20:05:39.128Z,100310.41
2022-09-29T20:08:46.398Z,100308.30
2022-09-29T20:11:57.016Z,100310.64
2022-09-29T20:15:04.076Z,100312.16
2022-09-29T20:18:11.146Z,100309.51
2022-09-29T20:21:25.207Z,100306.23
2022-09-29T20:24:34.562Z,100306.02
2022-09-29T20:27:40.677Z,100307.51
2022-09-29T20:30:47.265Z,100305.61
2022-09-29T20:33:54.084Z,100305.41
2022-09-29T20:36:59.480Z,100304.47
2022-09-29T20:40:05.251Z,100310.40
2022-09-29T20:43:11.669Z,100302.91
2022-09-29T20:46:21.603Z,100301.95
2022-09-29T20:49:28.839Z,100306.52
2022-09-29T20:52:35.225Z,100298.59
2022-09-29T20:55:43.908Z,100299.22
2022-09-29T20:58:51.954Z,100299.56
2022-09-29T21:02:02.665Z,100301.55
2022-09-29T21:05:09.663Z,100301.89
2022-09-29T21:08:15.724Z,100297.77
2022-09-29T21:11:23.710Z,100296.17
2022-09-29T21:14:34.673Z,100297.66
2022-09-29T21:17:40.711Z,100298.20
2022-09-29T21:20:47.753Z,100280.28
2022-09-29T21:23:56.051Z,100283.34
2022-09-29T21:27:02.264Z,100277.83
2022-09-29T21:30:08.232Z,100280.58
2022-09-29T21:33:15.941Z,100274.00
2022-09-29T21:36:26.323Z,100276.03
2022-09-29T21:39:31.826Z,100277.92
2022-09-29T21:42:39.898Z,100269.99
2022-09-29T21:45:45.899Z,100275.30
2022-09-29T21:48:50.871Z,100275.09
2022-09-29T21:52:02.038Z,100269.05
2022-09-29T21:55:07.193Z,100273.80
2022-09-29T21:58:13.783Z,100280.19
2022-09-29T22:01:20.475Z,100287.17
2022-09-29T22:04:27.812Z,100282.00
2022-09-29T22:07:35.116Z,100285.96
2022-09-29T22:10:42.656Z,100284.37
2022-09-29T22:13:50.493Z,100278.85
2022-09-29T22:16:57.791Z,100280.33
2022-09-29T22:20:03.520Z,100283.22
2022-09-29T22:23:09.345Z,100280.55
2022-09-29T22:26:14.655Z,100286.72
2022-09-29T22:29:21.958Z,100290.95
2022-09-29T22:32:28.103Z,100288.33
2022-09-29T22:35:35.113Z,100301.70
2022-09-29T22:38:41.174Z,100304.77
2022-09-29T22:41:48.033Z,100302.45
2022-09-29T22:44:54.994Z,100299.47
2022-09-29T22:48:02.072Z,100300.85
2022-09-29T22:51:09.402Z,100306.47
2022-09-29T22:54:16.295Z,100304.57
2022-09-29T22:57:22.349Z,100296.59
2022-09-29T23:00:21.523Z,100300.73
2022-09-29T23:03:29.230Z,100288.88
2022-09-29T23:06:35.782Z,100286.94
2022-09-29T23:09:43.184Z,100281.42
2022-09-29T23:12:49.303Z,100285.03
2022-09-29T23:15:55.180Z,100283.66
2022-09-29T23:19:03.844Z,100285.56
2022-09-29T23:22:10.086Z,100283.66
2022-09-29T23:25:17.767Z,100280.69
2022-09-29T23:28:23.362Z,100283.78
2022-09-29T23:31:28.762Z,100281.85
2022-09-29T23:34:37.306Z,100280.26
2022-09-29T23:37:46.204Z,100281.64
2022-09-29T23:40:53.026Z,100280.59
2022-09-29T23:43:58.466Z,100286.95
2022-09-29T23:47:05.803Z,100289.70
2022-09-29T23:50:10.843Z,100280.91
2022-09-29T23:53:16.989Z,100287.80
2022-09-29T23:56:24.994Z,100286.64
2022-09-29T23:59:32.759Z,100294.40
